createdAt,value
2023-04-27T00:02:12.668Z,28.86
2023-04-27T00:04:41.985Z,28.77
2023-04-27T00:07:10.006Z,28.77
2023-04-27T00:09:38.022Z,28.97
2023-04-27T00:12:06.637Z,28.78
2023-04-27T00:14:34.671Z,28.89
2023-04-27T00:17:02.764Z,28.92
2023-04-27T00:19:31.486Z,28.89
2023-04-27T00:22:00.313Z,29.04
2023-04-27T00:24:28.814Z,28.86
2023-04-27T00:26:56.831Z,28.89
2023-04-27T00:29:24.846Z,28.87
2023-04-27T00:31:53.006Z,28.88
2023-04-27T00:34:23.868Z,28.87
2023-04-27T00:36:52.008Z,28.97
2023-04-27T00:39:21.313Z,28.94
2023-04-27T00:41:49.527Z,28.84
2023-04-27T00:44:25.001Z,28.86
2023-04-27T00:46:53.280Z,28.89
2023-04-27T00:49:21.347Z,28.91
2023-04-27T00:51:49.409Z,28.84
2023-04-27T00:54:19.884Z,28.77
2023-04-27T00:56:51.352Z,28.91
2023-04-27T00:59:19.499Z,28.96
2023-04-27T01:01:47.551Z,28.85
2023-04-27T01:04:17.143Z,28.87
2023-04-27T01:06:45.663Z,28.88
2023-04-27T01:09:14.256Z,28.98
2023-04-27T01:11:43.121Z,28.82
2023-04-27T01:14:11.345Z,28.90
2023-04-27T01:16:39.470Z,29.04
2023-04-27T01:19:07.965Z,28.84
2023-04-27T01:21:36.180Z,29.05
2023-04-27T01:24:06.371Z,29.01
2023-04-27T01:26:34.336Z,29.00
2023-04-27T01:29:02.457Z,29.03
2023-04-27T01:31:30.390Z,28.99
2023-04-27T01:33:59.924Z,29.13
2023-04-27T01:36:27.854Z,29.04
2023-04-27T01:38:57.018Z,29.11
2023-04-27T01:41:25.413Z,29.03
2023-04-27T01:43:53.486Z,29.08
2023-04-27T01:46:22.797Z,29.13
2023-04-27T01:48:51.661Z,29.03
2023-04-27T01:51:20.718Z,29.15
2023-04-27T01:53:48.837Z,28.98
2023-04-27T01:56:17.760Z,29.11
2023-04-27T01:58:46.298Z,29.17
2023-04-27T02:01:14.734Z,28.98
2023-04-27T02:03:43.543Z,29.11
2023-04-27T02:06:13.466Z,29.21
2023-04-27T02:08:41.528Z,29.16
2023-04-27T02:11:09.937Z,29.19
2023-04-27T02:13:38.620Z,29.14
2023-04-27T02:16:07.130Z,29.17
2023-04-27T02:18:36.153Z,29.22
2023-04-27T02:21:09.517Z,29.02
2023-04-27T02:23:37.863Z,29.17
2023-04-27T02:26:06.386Z,29.14
2023-04-27T02:28:34.333Z,29.06
2023-04-27T02:31:03.268Z,29.08
2023-04-27T02:33:31.534Z,29.15
2023-04-27T02:35:59.605Z,29.08
2023-04-27T02:38:30.171Z,29.12
2023-04-27T02:40:58.217Z,29.00
2023-04-27T02:43:27.439Z,29.11
2023-04-27T02:45:55.672Z,29.19
2023-04-27T02:48:23.798Z,29.07
2023-04-27T02:50:51.956Z,28.99
2023-04-27T02:53:20.004Z,29.11
2023-04-27T02:55:50.902Z,29.15
2023-04-27T02:58:18.921Z,29.09
2023-04-27T03:00:48.219Z,29.07
2023-04-27T03:03:16.951Z,29.10
2023-04-27T03:05:46.512Z,29.10
2023-04-27T03:08:14.708Z,29.13
2023-04-27T03:10:42.774Z,29.09
2023-04-27T03:13:11.084Z,29.08
2023-04-27T03:15:39.643Z,29.03
2023-04-27T03:18:08.270Z,29.07
2023-04-27T03:20:36.699Z,29.02
2023-04-27T03:23:05.026Z,29.01
2023-04-27T03:25:32.923Z,29.08
2023-04-27T03:28:01.178Z,29.13
2023-04-27T03:30:29.103Z,29.16
2023-04-27T03:32:57.361Z,28.99
2023-04-27T03:35:25.753Z,29.08
2023-04-27T03:37:53.698Z,29.08
2023-04-27T03:40:22.184Z,29.03
2023-04-27T03:42:50.174Z,29.05
2023-04-27T03:45:19.416Z,29.06
2023-04-27T03:47:47.346Z,29.02
2023-04-27T03:50:16.336Z,28.97
2023-04-27T03:52:44.381Z,29.04
2023-04-27T03:55:12.612Z,28.87
2023-04-27T03:57:41.681Z,28.93
2023-04-27T04:00:13.112Z,28.87
2023-04-27T04:02:42.312Z,28.92
2023-04-27T04:05:10.957Z,28.86
2023-04-27T04:07:38.862Z,28.95
2023-04-27T04:10:08.139Z,28.92
2023-04-27T04:12:38.176Z,29.02
2023-04-27T04:15:07.824Z,28.91
2023-04-27T04:17:36.031Z,28.78
2023-04-27T04:20:09.013Z,28.85
2023-04-27T04:22:38.061Z,28.88
2023-04-27T04:25:06.581Z,28.82
2023-04-27T04:27:34.919Z,28.74
2023-04-27T04:30:05.216Z,28.67
2023-04-27T04:32:34.067Z,28.82
2023-04-27T04:35:02.587Z,28.64
2023-04-27T04:37:33.105Z,28.94
2023-04-27T04:40:01.449Z,28.79
2023-04-27T04:42:29.460Z,28.90
2023-04-27T04:44:58.743Z,28.77
2023-04-27T04:47:27.329Z,27.94
2023-04-27T04:49:56.006Z,26.91
2023-04-27T04:55:46.689Z,26.24
2023-04-27T04:58:15.184Z,26.03
2023-04-27T05:00:43.647Z,26.48
2023-04-27T05:03:11.906Z,27.01
2023-04-27T05:05:40.004Z,27.30
2023-04-27T05:08:08.530Z,27.66
2023-04-27T05:10:37.036Z,27.98
2023-04-27T05:13:07.101Z,28.24
2023-04-27T05:15:37.403Z,28.52
2023-04-27T05:18:05.602Z,28.51
2023-04-27T05:20:36.925Z,28.71
2023-04-27T05:23:05.301Z,29.12
2023-04-27T05:25:33.795Z,29.34
2023-04-27T05:28:01.750Z,29.56
2023-04-27T05:30:29.905Z,29.84
2023-04-27T05:32:58.207Z,30.28
2023-04-27T05:35:26.982Z,30.42
2023-04-27T05:37:55.002Z,30.51
2023-04-27T05:40:23.040Z,30.91
2023-04-27T05:42:51.609Z,31.11
2023-04-27T05:45:19.692Z,31.37
2023-04-27T05:47:47.969Z,31.50
2023-04-27T05:50:16.681Z,32.01
2023-04-27T05:52:44.763Z,32.66
2023-04-27T05:55:12.884Z,32.48
2023-04-27T05:57:41.582Z,32.36
2023-04-27T06:00:11.334Z,31.95
2023-04-27T06:02:41.942Z,31.87
2023-04-27T06:05:10.387Z,31.65
2023-04-27T06:07:38.459Z,31.57
2023-04-27T06:10:07.978Z,31.55
2023-04-27T06:12:35.875Z,31.54
2023-04-27T06:15:08.555Z,32.04
2023-04-27T06:17:37.575Z,32.41
2023-04-27T06:20:09.661Z,32.67
2023-04-27T06:22:37.863Z,32.68
2023-04-27T06:25:06.956Z,32.87
2023-04-27T06:27:35.719Z,32.78
2023-04-27T06:30:05.351Z,33.05
2023-04-27T06:32:33.533Z,33.05
2023-04-27T06:35:01.933Z,33.22
2023-04-27T06:37:30.469Z,32.99
2023-04-27T06:39:58.533Z,33.26
2023-04-27T06:42:27.543Z,33.33
2023-04-27T06:44:59.006Z,33.60
2023-04-27T06:47:27.659Z,33.69
2023-04-27T06:49:55.669Z,33.66
2023-04-27T06:52:24.246Z,33.51
2023-04-27T06:54:52.399Z,33.45
2023-04-27T06:57:20.746Z,33.38
2023-04-27T06:59:48.835Z,33.59
2023-04-27T07:02:17.250Z,33.18
2023-04-27T07:04:46.082Z,32.72
2023-04-27T07:07:14.206Z,32.70
2023-04-27T07:09:42.452Z,32.63
2023-04-27T07:12:10.632Z,32.45
2023-04-27T07:14:38.595Z,32.38
2023-04-27T07:17:06.661Z,32.25
2023-04-27T07:19:34.837Z,32.14
2023-04-27T07:22:02.902Z,32.20
2023-04-27T07:24:31.804Z,32.12
2023-04-27T07:27:02.444Z,32.13
2023-04-27T07:29:31.392Z,31.80
2023-04-27T07:31:59.956Z,31.58
2023-04-27T07:34:30.791Z,31.72
2023-04-27T07:37:03.541Z,31.63
2023-04-27T07:39:31.442Z,31.46
2023-04-27T07:41:59.786Z,31.58
2023-04-27T07:44:29.176Z,31.04
2023-04-27T07:46:58.639Z,31.14
2023-04-27T07:49:28.098Z,31.09
2023-04-27T07:51:56.636Z,30.62
2023-04-27T07:54:24.688Z,30.76
2023-04-27T07:56:53.806Z,30.86
2023-04-27T07:59:22.095Z,30.61
2023-04-27T08:01:50.434Z,30.73
2023-04-27T08:04:19.257Z,30.43
2023-04-27T08:06:47.878Z,30.49
2023-04-27T08:09:16.275Z,30.53
2023-04-27T08:11:44.487Z,30.31
2023-04-27T08:14:14.132Z,29.93
2023-04-27T08:16:42.917Z,29.93
2023-04-27T08:19:11.242Z,29.69
2023-04-27T08:21:39.533Z,29.21
2023-04-27T08:24:07.711Z,29.48
2023-04-27T08:26:36.292Z,29.32
2023-04-27T08:29:12.048Z,29.15
2023-04-27T08:31:53.736Z,28.94
2023-04-27T08:34:23.620Z,28.91
2023-04-27T08:36:51.910Z,28.70
2023-04-27T08:39:20.297Z,28.59
2023-04-27T08:41:48.369Z,28.78
2023-04-27T08:44:16.370Z,28.78
2023-04-27T08:46:44.394Z,28.83
2023-04-27T08:49:15.118Z,28.75
2023-04-27T08:51:44.967Z,28.81
2023-04-27T08:54:13.476Z,28.74
2023-04-27T08:56:41.395Z,28.81
2023-04-27T08:59:16.755Z,28.74
2023-04-27T09:01:47.090Z,28.76
2023-04-27T09:04:16.072Z,28.75
2023-04-27T09:06:44.320Z,28.58
2023-04-27T09:09:21.945Z,28.53
2023-04-27T09:11:50.201Z,28.41
2023-04-27T09:14:20.676Z,28.44
2023-04-27T09:16:57.847Z,28.33
2023-04-27T09:19:29.962Z,28.24
2023-04-27T09:22:08.101Z,28.27
2023-04-27T09:24:36.438Z,28.13
2023-04-27T09:27:05.384Z,28.11
2023-04-27T09:29:35.311Z,27.89
2023-04-27T09:32:04.179Z,28.10
2023-04-27T09:34:40.222Z,27.98
2023-04-27T09:37:08.336Z,28.08
2023-04-27T09:39:36.895Z,27.85
2023-04-27T09:42:04.983Z,27.91
2023-04-27T09:44:33.641Z,27.64
2023-04-27T09:47:02.219Z,27.69
2023-04-27T09:49:30.687Z,27.76
2023-04-27T09:51:59.102Z,27.83
2023-04-27T09:54:28.366Z,27.56
2023-04-27T09:57:12.735Z,27.55
2023-04-27T09:59:53.789Z,27.51
2023-04-27T10:02:24.665Z,27.58
2023-04-27T10:05:14.949Z,27.53
2023-04-27T10:07:42.998Z,27.51
2023-04-27T10:10:20.456Z,27.59
2023-04-27T10:13:01.308Z,27.46
2023-04-27T10:15:30.412Z,27.41
2023-04-27T10:18:04.421Z,27.45
2023-04-27T10:20:35.948Z,27.52
2023-04-27T10:23:04.066Z,27.54
2023-04-27T10:25:40.810Z,27.50
2023-04-27T10:28:09.243Z,27.52
2023-04-27T10:30:38.759Z,27.56
2023-04-27T10:33:07.770Z,27.61
2023-04-27T10:35:37.952Z,27.50
2023-04-27T10:38:30.236Z,27.39
2023-04-27T10:41:03.689Z,27.59
2023-04-27T10:43:34.277Z,27.51
2023-04-27T10:46:15.194Z,27.66
2023-04-27T10:48:43.748Z,27.68
2023-04-27T10:51:18.187Z,27.76
2023-04-27T10:53:48.213Z,27.93
2023-04-27T10:56:16.456Z,28.02
2023-04-27T10:58:48.754Z,28.03
2023-04-27T11:01:30.118Z,27.95
2023-04-27T11:03:59.199Z,28.00
2023-04-27T11:06:28.649Z,28.14
2023-04-27T11:08:57.235Z,28.04
2023-04-27T11:11:26.733Z,28.10
2023-04-27T11:13:58.600Z,28.13
2023-04-27T11:16:29.208Z,28.15
2023-04-27T11:19:05.096Z,28.25
2023-04-27T11:21:33.546Z,28.20
2023-04-27T11:24:06.484Z,28.37
2023-04-27T11:26:34.801Z,28.34
2023-04-27T11:29:05.727Z,28.30
2023-04-27T11:31:47.719Z,28.42
2023-04-27T11:34:22.603Z,28.54
2023-04-27T11:39:37.926Z,28.57
2023-04-27T11:42:35.237Z,28.61
2023-04-27T11:45:06.289Z,28.55
2023-04-27T11:47:35.633Z,28.66
2023-04-27T11:50:06.229Z,28.63
2023-04-27T11:52:40.275Z,28.55
2023-04-27T11:55:16.570Z,28.53
2023-04-27T11:57:44.490Z,28.62
2023-04-27T12:00:14.775Z,28.62
2023-04-27T12:02:44.260Z,28.58
2023-04-27T12:05:13.753Z,28.51
2023-04-27T12:07:43.578Z,28.65
2023-04-27T12:10:12.050Z,28.72
2023-04-27T12:12:40.284Z,28.60
2023-04-27T12:15:09.236Z,28.67
2023-04-27T12:17:38.892Z,28.61
2023-04-27T12:20:07.813Z,28.78
2023-04-27T12:22:35.913Z,28.83
2023-04-27T12:25:05.413Z,28.74
2023-04-27T12:27:33.562Z,28.66
2023-04-27T12:30:01.968Z,28.60
2023-04-27T12:32:30.036Z,28.75
2023-04-27T12:34:58.081Z,28.67
2023-04-27T12:37:27.208Z,28.59
2023-04-27T12:39:55.372Z,28.50
2023-04-27T12:42:24.710Z,28.41
2023-04-27T12:44:53.451Z,28.55
2023-04-27T12:47:46.047Z,28.54
2023-04-27T12:50:11.026Z,28.53
2023-04-27T12:52:39.664Z,28.31
2023-04-27T12:55:15.381Z,28.40
2023-04-27T12:57:49.942Z,28.39
2023-04-27T13:00:18.525Z,28.12
2023-04-27T13:02:46.863Z,28.34
2023-04-27T13:05:15.786Z,28.37
2023-04-27T13:07:43.856Z,28.29
2023-04-27T13:10:12.250Z,28.23
2023-04-27T13:12:40.610Z,28.24
2023-04-27T13:15:09.696Z,28.26
2023-04-27T13:17:38.019Z,28.18
2023-04-27T13:20:07.618Z,28.02
2023-04-27T13:22:35.891Z,28.01
2023-04-27T13:25:06.162Z,27.88
2023-04-27T13:27:34.357Z,27.89
2023-04-27T13:30:02.479Z,27.90
2023-04-27T13:32:30.764Z,27.75
2023-04-27T13:34:59.811Z,27.66
2023-04-27T13:37:27.736Z,27.87
2023-04-27T13:39:56.176Z,27.55
2023-04-27T13:42:29.674Z,27.70
2023-04-27T13:44:57.916Z,27.67
2023-04-27T13:47:29.381Z,27.80
2023-04-27T13:49:57.475Z,27.77
2023-04-27T13:52:25.648Z,27.58
2023-04-27T13:54:53.770Z,27.78
2023-04-27T13:57:21.836Z,27.72
2023-04-27T13:59:50.349Z,27.58
2023-04-27T14:02:18.441Z,27.72
2023-04-27T14:04:46.708Z,27.55
2023-04-27T14:07:15.688Z,27.65
2023-04-27T14:09:43.620Z,27.58
2023-04-27T14:12:12.236Z,27.63
2023-04-27T14:14:40.219Z,27.49
2023-04-27T14:17:08.429Z,27.78
2023-04-27T14:19:37.569Z,27.60
2023-04-27T14:22:06.564Z,27.57
2023-04-27T14:24:34.470Z,27.62
2023-04-27T14:27:02.498Z,27.61
2023-04-27T14:29:30.979Z,27.56
2023-04-27T14:31:58.941Z,27.74
2023-04-27T14:34:27.770Z,27.60
2023-04-27T14:36:56.987Z,27.45
2023-04-27T14:39:25.147Z,27.48
2023-04-27T14:41:53.896Z,27.43
2023-04-27T14:44:21.871Z,27.55
2023-04-27T14:46:50.094Z,27.63
2023-04-27T14:49:19.141Z,27.42
2023-04-27T14:55:04.368Z,27.20
2023-04-27T14:57:32.610Z,26.81
2023-04-27T15:00:00.903Z,26.91
2023-04-27T15:02:30.085Z,27.00
2023-04-27T15:04:59.241Z,26.84
2023-04-27T15:07:27.311Z,26.98
2023-04-27T15:09:55.819Z,27.18
2023-04-27T15:12:23.877Z,27.07
2023-04-27T15:14:52.889Z,27.00
2023-04-27T15:17:21.001Z,27.05
2023-04-27T15:19:49.529Z,27.10
2023-04-27T15:22:17.623Z,26.83
2023-04-27T15:24:46.229Z,27.12
2023-04-27T15:27:14.374Z,27.13
2023-04-27T15:29:42.740Z,26.84
2023-04-27T15:32:10.887Z,27.01
2023-04-27T15:34:42.802Z,26.99
2023-04-27T15:37:10.816Z,26.87
2023-04-27T15:39:38.812Z,27.04
2023-04-27T15:42:06.914Z,26.90
2023-04-27T15:44:34.927Z,27.01
2023-04-27T15:47:03.546Z,26.86
2023-04-27T15:49:34.451Z,26.91
2023-04-27T15:52:08.742Z,26.87
2023-04-27T15:54:37.068Z,26.86
2023-04-27T15:57:05.454Z,26.73
2023-04-27T15:59:33.405Z,26.97
2023-04-27T16:02:01.548Z,26.80
2023-04-27T16:04:29.650Z,26.75
2023-04-27T16:06:58.764Z,26.77
2023-04-27T16:09:26.851Z,26.53
2023-04-27T16:11:55.495Z,26.63
2023-04-27T16:14:23.569Z,26.55
2023-04-27T16:16:51.796Z,26.60
2023-04-27T16:19:20.151Z,26.56
2023-04-27T16:21:48.181Z,26.50
2023-04-27T16:24:16.322Z,26.49
2023-04-27T16:26:44.306Z,26.50
2023-04-27T16:29:13.012Z,26.58
2023-04-27T16:31:42.888Z,26.47
2023-04-27T16:34:11.086Z,26.40
2023-04-27T16:36:39.633Z,26.39
2023-04-27T16:39:07.666Z,26.61
2023-04-27T16:41:36.036Z,26.34
2023-04-27T16:44:03.964Z,26.44
2023-04-27T16:46:32.213Z,26.32
2023-04-27T16:49:00.449Z,26.53
2023-04-27T16:51:29.493Z,26.51
2023-04-27T16:53:58.650Z,26.24
2023-04-27T16:56:27.957Z,26.32
2023-04-27T16:58:56.625Z,26.22
2023-04-27T17:04:41.136Z,25.83
2023-04-27T17:07:12.092Z,25.75
2023-04-27T17:09:41.022Z,25.71
2023-04-27T17:12:12.585Z,25.73
2023-04-27T17:14:40.764Z,25.73
2023-04-27T17:17:08.824Z,25.90
2023-04-27T17:19:37.104Z,25.94
2023-04-27T17:22:05.218Z,26.19
2023-04-27T17:24:33.523Z,26.17
2023-04-27T17:27:01.916Z,26.13
2023-04-27T17:29:30.100Z,25.95
2023-04-27T17:31:58.190Z,25.89
2023-04-27T17:34:26.388Z,26.05
2023-04-27T17:36:54.527Z,25.86
2023-04-27T17:39:22.902Z,25.91
2023-04-27T17:41:51.507Z,25.99
2023-04-27T17:44:19.440Z,25.75
2023-04-27T17:46:48.388Z,25.83
2023-04-27T17:49:17.334Z,25.78
2023-04-27T17:51:45.827Z,25.87
2023-04-27T17:54:14.089Z,25.73
2023-04-27T17:56:43.181Z,25.79
2023-04-27T17:59:11.295Z,25.77
2023-04-27T18:01:39.333Z,25.67
2023-04-27T18:04:07.625Z,25.75
2023-04-27T18:06:36.799Z,25.65
2023-04-27T18:09:04.711Z,25.67
2023-04-27T18:11:33.783Z,25.62
2023-04-27T18:14:01.860Z,25.55
2023-04-27T18:16:29.953Z,25.72
2023-04-27T18:18:58.098Z,25.77
2023-04-27T18:21:27.929Z,25.48
2023-04-27T18:23:56.681Z,25.55
2023-04-27T18:26:26.696Z,25.49
2023-04-27T18:28:55.389Z,25.71
2023-04-27T18:31:24.851Z,25.67
2023-04-27T18:33:52.945Z,25.70
2023-04-27T18:36:21.129Z,25.48
2023-04-27T18:38:49.371Z,25.34
2023-04-27T18:41:17.391Z,25.37
2023-04-27T18:43:46.257Z,25.43
2023-04-27T18:46:14.705Z,25.16
2023-04-27T18:48:42.908Z,25.41
2023-04-27T18:51:11.288Z,25.27
2023-04-27T18:53:39.990Z,25.19
2023-04-27T18:56:08.945Z,25.30
2023-04-27T18:58:37.569Z,25.36
2023-04-27T19:01:06.207Z,25.06
2023-04-27T19:03:34.683Z,25.27
2023-04-27T19:06:02.986Z,25.16
2023-04-27T19:08:31.387Z,25.07
2023-04-27T19:11:00.318Z,25.11
2023-04-27T19:13:28.543Z,25.09
2023-04-27T19:15:57.019Z,25.16
2023-04-27T19:18:26.680Z,25.16
2023-04-27T19:20:55.153Z,25.11
2023-04-27T19:23:24.189Z,25.05
2023-04-27T19:25:55.089Z,24.96
2023-04-27T19:28:25.809Z,25.04
2023-04-27T19:30:53.904Z,25.10
2023-04-27T19:33:22.528Z,25.02
2023-04-27T19:35:52.456Z,24.83
2023-04-27T19:41:43.290Z,24.71
2023-04-27T19:44:11.386Z,24.42
2023-04-27T19:46:39.555Z,24.33
2023-04-27T19:49:07.699Z,24.59
2023-04-27T19:51:35.976Z,24.47
2023-04-27T19:54:04.755Z,24.44
2023-04-27T19:56:33.762Z,24.40
2023-04-27T19:59:02.173Z,24.51
2023-04-27T20:01:30.772Z,24.59
2023-04-27T20:03:59.108Z,24.63
2023-04-27T20:06:27.754Z,24.67
2023-04-27T20:08:55.710Z,24.54
2023-04-27T20:11:23.601Z,24.57
2023-04-27T20:13:51.752Z,24.48
2023-04-27T20:16:22.233Z,24.55
2023-04-27T20:18:51.983Z,24.55
2023-04-27T20:21:21.504Z,24.65
2023-04-27T20:23:50.001Z,24.71
2023-04-27T20:26:18.388Z,24.51
2023-04-27T20:28:47.351Z,24.60
2023-04-27T20:31:15.905Z,24.58
2023-04-27T20:33:43.952Z,24.45
2023-04-27T20:36:17.114Z,24.66
2023-04-27T20:38:46.340Z,24.49
2023-04-27T20:41:14.479Z,24.45
2023-04-27T20:43:44.885Z,24.54
2023-04-27T20:46:13.220Z,24.59
2023-04-27T20:48:41.751Z,24.46
2023-04-27T20:51:09.786Z,24.54
2023-04-27T20:53:38.462Z,24.57
2023-04-27T20:56:07.094Z,24.55
2023-04-27T20:58:35.356Z,24.49
2023-04-27T21:01:03.450Z,24.55
2023-04-27T21:03:31.838Z,24.34
2023-04-27T21:06:00.020Z,24.43
2023-04-27T21:08:28.156Z,24.33
2023-04-27T21:10:57.370Z,24.36
2023-04-27T21:13:25.752Z,24.31
2023-04-27T21:15:53.700Z,24.38
2023-04-27T21:18:29.732Z,24.47
2023-04-27T21:20:58.911Z,24.60
2023-04-27T21:23:27.815Z,24.54
2023-04-27T21:25:56.424Z,24.57
2023-04-27T21:28:24.602Z,24.48
2023-04-27T21:30:52.774Z,24.41
2023-04-27T21:33:20.884Z,24.37
2023-04-27T21:35:49.628Z,24.45
2023-04-27T21:38:17.599Z,24.42
2023-04-27T21:40:46.420Z,24.57
2023-04-27T21:43:14.460Z,24.32
2023-04-27T21:45:43.049Z,24.27
2023-04-27T21:48:11.251Z,24.43
2023-04-27T21:50:39.532Z,24.66
2023-04-27T21:53:07.570Z,24.52
2023-04-27T21:55:35.452Z,24.26
2023-04-27T21:58:03.639Z,24.31
2023-04-27T22:00:32.042Z,24.47
2023-04-27T22:03:00.181Z,24.37
2023-04-27T22:05:29.659Z,24.36
2023-04-27T22:07:58.128Z,24.24
2023-04-27T22:10:26.100Z,24.48
2023-04-27T22:12:54.857Z,24.24
2023-04-27T22:15:23.686Z,24.17
2023-04-27T22:17:53.953Z,24.16
2023-04-27T22:20:22.213Z,24.08
2023-04-27T22:22:50.244Z,23.99
2023-04-27T22:25:19.128Z,24.00
2023-04-27T22:27:47.102Z,24.15
2023-04-27T22:30:15.710Z,23.91
2023-04-27T22:32:45.128Z,24.03
2023-04-27T22:35:25.465Z,23.86
2023-04-27T22:37:58.232Z,23.99
2023-04-27T22:40:26.353Z,23.95
2023-04-27T22:42:55.244Z,23.90
2023-04-27T22:45:23.555Z,23.82
2023-04-27T22:47:51.651Z,23.80
2023-04-27T22:50:19.710Z,23.91
2023-04-27T22:52:48.493Z,23.91
2023-04-27T22:55:16.979Z,23.93
2023-04-27T22:57:45.350Z,23.83
2023-04-27T23:00:13.993Z,24.07
2023-04-27T23:02:43.199Z,23.66
2023-04-27T23:05:12.544Z,23.93
2023-04-27T23:07:43.526Z,23.91
2023-04-27T23:10:13.313Z,23.72
2023-04-27T23:12:42.003Z,23.82
2023-04-27T23:15:11.510Z,23.82
2023-04-27T23:17:39.595Z,23.81
2023-04-27T23:20:20.452Z,23.79
2023-04-27T23:22:55.288Z,23.74
2023-04-27T23:25:23.319Z,23.92
2023-04-27T23:27:52.439Z,23.62
2023-04-27T23:30:22.099Z,23.82
2023-04-27T23:32:50.885Z,23.63
2023-04-27T23:35:19.820Z,23.80
2023-04-27T23:37:48.099Z,23.72
2023-04-27T23:40:16.258Z,23.65
2023-04-27T23:42:44.688Z,23.72
2023-04-27T23:45:12.658Z,23.68
2023-04-27T23:47:41.678Z,23.54
2023-04-27T23:50:10.882Z,23.64
2023-04-27T23:52:39.375Z,23.66
2023-04-27T23:55:08.022Z,23.63
2023-04-27T23:57:36.020Z,23.74
